Time;durP1;ratioP1;P1;durP2;ratioP2;P2;SDS_P1;SDS_P2;PMS_P1;PMS_P2;Temp;Humidity;BMP_temperature;BMP_pressure;BME280_temperature;BME280_humidity;BME280_pressure;Samples;Min_cycle;Max_cycle;Signal;HPM_P1;HPM_P2
2022/10/03 00:00:21;;;;;;;;;;;9.10;99.90;;;;;;5047583;28;20701;-67
2022/10/03 00:02:46;;;;;;;;;;;9.10;99.90;;;;;;5046693;28;19928;-67
2022/10/03 00:05:31;;;;;;;;;;;9.10;99.90;;;;;;5048057;28;19994;-67
2022/10/03 00:07:59;;;;;;;;;;;9.00;99.90;;;;;;5026251;28;19979;-67
2022/10/03 00:10:57;;;;;;;;;;;9.00;99.90;;;;;;5048869;28;19921;-67
2022/10/03 00:13:38;;;;;;;;;;;9.00;99.90;;;;;;5002101;28;19927;-67
2022/10/03 00:16:03;;;;;;;;;;;9.00;99.90;;;;;;5046734;28;19971;-67
2022/10/03 00:18:51;;;;;;;;;;;9.10;99.90;;;;;;5046298;28;19936;-67
2022/10/03 00:21:16;;;;;;;;;;;9.10;99.90;;;;;;5048038;28;20378;-67
2022/10/03 00:24:00;;;;;;;;;;;9.10;99.90;;;;;;5054712;22;20026;-68
2022/10/03 00:26:32;;;;;;;;;;;9.10;99.90;;;;;;4999053;28;19921;-69
2022/10/03 00:29:13;;;;;;;;;;;9.10;99.90;;;;;;5009010;28;19957;-68
2022/10/03 00:31:41;;;;;;;;;;;9.10;99.90;;;;;;5007654;28;19929;-68
2022/10/03 00:34:13;;;;;;;;;;;9.10;99.90;;;;;;5008015;28;20290;-68
2022/10/03 00:36:48;;;;;;;;;;;9.10;99.90;;;;;;5010547;28;19933;-69
2022/10/03 00:39:24;;;;;;;;;;;9.20;99.90;;;;;;5016707;28;20527;-69
2022/10/03 00:42:11;;;;;;;;;;;9.20;99.90;;;;;;5022495;28;19991;-69
2022/10/03 00:44:46;;;;;;;;;;;9.20;99.90;;;;;;5011600;28;19922;-69
2022/10/03 00:47:31;;;;;;;;;;;9.30;99.90;;;;;;5011301;28;19922;-69
2022/10/03 00:50:05;;;;;;;;;;;9.30;99.90;;;;;;5010862;28;19925;-68
2022/10/03 00:52:39;;;;;;;;;;;9.40;99.90;;;;;;5011979;28;19968;-69
2022/10/03 00:55:23;;;;;;;;;;;9.50;99.90;;;;;;5012447;28;19922;-69
2022/10/03 00:58:07;;;;;;;;;;;9.60;99.90;;;;;;5009289;28;19933;-68
2022/10/03 01:00:34;;;;;;;;;;;9.70;99.90;;;;;;5010878;28;19926;-68
2022/10/03 01:03:10;;;;;;;;;;;9.70;99.90;;;;;;5007966;28;21259;-69
2022/10/03 01:05:48;;;;;;;;;;;9.80;99.90;;;;;;5012281;28;19925;-68
2022/10/03 01:08:49;;;;;;;;;;;9.90;99.90;;;;;;5009563;28;19953;-69
2022/10/03 01:11:15;;;;;;;;;;;9.90;99.90;;;;;;4951092;28;19983;-69
2022/10/03 01:13:52;;;;;;;;;;;10.00;99.90;;;;;;5000566;28;19929;-69
2022/10/03 01:16:25;;;;;;;;;;;10.00;99.90;;;;;;5011764;28;19925;-69
2022/10/03 01:18:57;;;;;;;;;;;10.10;99.90;;;;;;5006404;28;19973;-68
2022/10/03 01:21:39;;;;;;;;;;;10.10;99.90;;;;;;5000928;28;20031;-68
2022/10/03 01:24:14;;;;;;;;;;;10.20;99.90;;;;;;5011992;28;19969;-68
2022/10/03 01:26:52;;;;;;;;;;;10.30;99.90;;;;;;5009073;28;19929;-69
2022/10/03 01:32:16;;;;;;;;;;;10.30;99.90;;;;;;5006625;28;20000;-69
2022/10/03 01:35:01;;;;;;;;;;;10.30;99.90;;;;;;5011368;28;19948;-69
2022/10/03 01:37:45;;;;;;;;;;;10.30;99.90;;;;;;5004179;28;19929;-69
2022/10/03 01:40:14;;;;;;;;;;;10.40;99.90;;;;;;5007186;28;19930;-68
2022/10/03 01:42:51;;;;;;;;;;;10.40;99.90;;;;;;5009654;28;19979;-69
2022/10/03 01:45:29;;;;;;;;;;;10.40;99.90;;;;;;5006731;28;19931;-68
2022/10/03 01:48:00;;;;;;;;;;;10.40;99.90;;;;;;5006847;28;19932;-69
2022/10/03 01:50:32;;;;;;;;;;;10.40;99.90;;;;;;5008642;28;19930;-68
2022/10/03 01:53:03;;;;;;;;;;;10.30;99.90;;;;;;5008252;28;19948;-68
2022/10/03 01:55:38;;;;;;;;;;;10.40;99.90;;;;;;5004738;28;19922;-68
2022/10/03 01:58:10;;;;;;;;;;;10.40;99.90;;;;;;5008224;28;19932;-68
2022/10/03 02:00:44;;;;;;;;;;;10.40;99.90;;;;;;5010086;28;20940;-69
2022/10/03 02:03:20;;;;;;;;;;;10.30;99.90;;;;;;4991672;28;19926;-68
2022/10/03 02:05:48;;;;;;;;;;;10.30;99.90;;;;;;5009889;28;19922;-68
2022/10/03 02:08:16;;;;;;;;;;;10.30;99.90;;;;;;5009289;28;19928;-68
2022/10/03 02:10:59;;;;;;;;;;;10.20;99.90;;;;;;5005301;28;19926;-68
2022/10/03 02:13:27;;;;;;;;;;;10.10;99.90;;;;;;5009580;28;19936;-68
2022/10/03 02:16:01;;;;;;;;;;;10.10;99.90;;;;;;5008285;28;20035;-69
2022/10/03 02:18:36;;;;;;;;;;;10.00;99.90;;;;;;5009533;28;19987;-68
2022/10/03 02:21:12;;;;;;;;;;;9.90;99.90;;;;;;5008122;28;20026;-68
2022/10/03 02:23:42;;;;;;;;;;;9.80;99.90;;;;;;5007155;28;19936;-68
2022/10/03 02:26:27;;;;;;;;;;;9.80;99.90;;;;;;5005967;28;19929;-68
2022/10/03 02:28:55;;;;;;;;;;;9.70;99.90;;;;;;5004757;28;19926;-68
2022/10/03 02:31:27;;;;;;;;;;;9.70;99.90;;;;;;5006284;28;19930;-68
2022/10/03 02:34:11;;;;;;;;;;;9.60;99.90;;;;;;5002983;28;20367;-68
2022/10/03 02:36:39;;;;;;;;;;;9.60;99.90;;;;;;5007014;28;19922;-68
2022/10/03 02:39:05;;;;;;;;;;;9.50;99.90;;;;;;5009180;28;20264;-68
2022/10/03 02:41:52;;;;;;;;;;;9.50;99.90;;;;;;5005510;28;19932;-68
2022/10/03 02:44:17;;;;;;;;;;;9.50;99.90;;;;;;5006160;28;19925;-68
2022/10/03 02:47:01;;;;;;;;;;;9.50;99.90;;;;;;4992645;28;20287;-68
2022/10/03 02:49:44;;;;;;;;;;;9.50;99.90;;;;;;5007921;28;19975;-68
2022/10/03 02:52:24;;;;;;;;;;;9.50;99.90;;;;;;5008510;28;20394;-68
2022/10/03 02:55:10;;;;;;;;;;;9.60;99.90;;;;;;5008541;28;19925;-68
2022/10/03 02:57:39;;;;;;;;;;;9.60;99.90;;;;;;5005782;28;20466;-68
2022/10/03 03:00:08;;;;;;;;;;;9.70;99.90;;;;;;4993405;28;20323;-68
2022/10/03 03:02:46;;;;;;;;;;;9.70;99.90;;;;;;5009645;28;19921;-68
2022/10/03 03:05:18;;;;;;;;;;;9.70;99.90;;;;;;5010666;28;20310;-68
2022/10/03 03:08:08;;;;;;;;;;;9.80;99.90;;;;;;5009157;28;20047;-68
2022/10/03 03:10:44;;;;;;;;;;;9.80;99.90;;;;;;5010531;28;19921;-68
2022/10/03 03:13:28;;;;;;;;;;;9.90;99.90;;;;;;5008332;28;19922;-68
2022/10/03 03:16:20;;;;;;;;;;;9.90;99.90;;;;;;5009477;28;19922;-68
2022/10/03 03:18:58;;;;;;;;;;;9.90;99.90;;;;;;5007230;28;19932;-68
2022/10/03 03:21:38;;;;;;;;;;;10.00;99.90;;;;;;5007919;28;19922;-68
2022/10/03 03:24:10;;;;;;;;;;;10.00;99.90;;;;;;5006255;28;19975;-68
2022/10/03 03:26:39;;;;;;;;;;;10.00;99.90;;;;;;5008073;28;19994;-68
2022/10/03 03:29:11;;;;;;;;;;;10.10;99.90;;;;;;5004581;28;20375;-68
2022/10/03 03:32:15;;;;;;;;;;;10.20;99.90;;;;;;5006946;28;19980;-68
2022/10/03 03:34:48;;;;;;;;;;;10.20;99.90;;;;;;4967645;28;20416;-68
2022/10/03 03:37:24;;;;;;;;;;;10.30;99.90;;;;;;4952746;28;19930;-68
2022/10/03 03:40:08;;;;;;;;;;;10.30;99.90;;;;;;4978276;28;20016;-68
2022/10/03 03:42:43;;;;;;;;;;;10.30;99.90;;;;;;5009596;28;19929;-68
2022/10/03 03:45:18;;;;;;;;;;;10.40;99.90;;;;;;5008785;28;20671;-68
2022/10/03 03:47:58;;;;;;;;;;;10.40;99.90;;;;;;5008287;28;19925;-68
2022/10/03 03:50:44;;;;;;;;;;;10.40;99.90;;;;;;5020574;28;20263;-68
2022/10/03 03:53:19;;;;;;;;;;;10.50;99.90;;;;;;5030796;28;19925;-68
2022/10/03 03:56:04;;;;;;;;;;;10.50;99.90;;;;;;5034227;28;20266;-68
2022/10/03 03:58:33;;;;;;;;;;;10.60;99.90;;;;;;5018390;28;19991;-68
2022/10/03 04:01:17;;;;;;;;;;;10.60;99.90;;;;;;5015117;28;19976;-68
2022/10/03 04:03:59;;;;;;;;;;;10.70;99.90;;;;;;5012147;28;20414;-68
2022/10/03 04:06:34;;;;;;;;;;;10.70;99.90;;;;;;5011894;28;20490;-68
2022/10/03 04:09:19;;;;;;;;;;;10.70;99.90;;;;;;5022250;28;19927;-68
2022/10/03 04:11:58;;;;;;;;;;;10.70;99.90;;;;;;5033180;28;19921;-68
2022/10/03 04:14:59;;;;;;;;;;;10.70;99.90;;;;;;5013410;28;19921;-68
2022/10/03 04:20:49;;;;;;;;;;;10.70;99.90;;;;;;5023821;28;19964;-68
2022/10/03 04:23:20;;;;;;;;;;;10.70;99.90;;;;;;4982437;28;19933;-68
2022/10/03 04:25:53;;;;;;;;;;;10.70;99.90;;;;;;5002272;28;20394;-68
2022/10/03 04:28:33;;;;;;;;;;;10.70;99.90;;;;;;5019541;28;19937;-68
2022/10/03 04:31:18;;;;;;;;;;;10.70;99.90;;;;;;5009974;28;19979;-68
2022/10/03 04:33:55;;;;;;;;;;;10.60;99.90;;;;;;5006753;28;20260;-68
2022/10/03 04:36:39;;;;;;;;;;;10.60;99.90;;;;;;5004389;28;19922;-68
2022/10/03 04:39:09;;;;;;;;;;;10.60;99.90;;;;;;5006661;28;20393;-68
2022/10/03 04:41:49;;;;;;;;;;;10.70;99.90;;;;;;5010668;28;20433;-68
2022/10/03 04:44:27;;;;;;;;;;;10.60;99.90;;;;;;5010701;28;19972;-68
2022/10/03 04:47:05;;;;;;;;;;;10.70;99.90;;;;;;5007529;28;19921;-68
2022/10/03 04:49:37;;;;;;;;;;;10.70;99.90;;;;;;5008951;28;19928;-68
2022/10/03 04:52:26;;;;;;;;;;;10.70;99.90;;;;;;5011411;28;19921;-68
2022/10/03 04:54:58;;;;;;;;;;;10.60;99.90;;;;;;5004689;28;19922;-68
2022/10/03 04:57:24;;;;;;;;;;;10.60;99.90;;;;;;5015706;28;19932;-68
2022/10/03 04:59:52;;;;;;;;;;;10.60;99.90;;;;;;5010846;28;19926;-68
2022/10/03 05:02:24;;;;;;;;;;;10.50;99.90;;;;;;5008217;28;19984;-68
2022/10/03 05:04:52;;;;;;;;;;;10.40;99.90;;;;;;5008343;28;20003;-68
2022/10/03 05:07:28;;;;;;;;;;;10.40;99.90;;;;;;5010695;28;19925;-68
2022/10/03 05:09:59;;;;;;;;;;;10.30;99.90;;;;;;5015224;28;19921;-68
2022/10/03 05:12:40;;;;;;;;;;;10.20;99.90;;;;;;5008148;28;19921;-68
2022/10/03 05:15:25;;;;;;;;;;;10.10;99.90;;;;;;5008363;28;20355;-68
2022/10/03 05:17:57;;;;;;;;;;;10.00;99.90;;;;;;4992591;28;20125;-68
2022/10/03 05:20:26;;;;;;;;;;;9.90;99.90;;;;;;5006985;28;19922;-68
2022/10/03 05:22:51;;;;;;;;;;;9.80;99.90;;;;;;5006721;28;20011;-68
2022/10/03 05:25:37;;;;;;;;;;;9.80;99.90;;;;;;5016542;28;20327;-68
2022/10/03 05:28:07;;;;;;;;;;;9.70;99.90;;;;;;5011091;28;20338;-68
2022/10/03 05:30:36;;;;;;;;;;;9.60;99.90;;;;;;5009848;28;19960;-68
2022/10/03 05:33:04;;;;;;;;;;;9.60;99.90;;;;;;5007507;28;19922;-68
2022/10/03 05:35:40;;;;;;;;;;;9.50;99.90;;;;;;5004372;28;19930;-68
2022/10/03 05:38:15;;;;;;;;;;;9.40;99.90;;;;;;5006021;28;20028;-68
2022/10/03 05:41:01;;;;;;;;;;;9.40;99.90;;;;;;5008973;28;19932;-68
2022/10/03 05:43:34;;;;;;;;;;;9.30;99.90;;;;;;5011491;28;19922;-68
2022/10/03 05:46:04;;;;;;;;;;;9.30;99.90;;;;;;5012172;28;20238;-68
2022/10/03 05:48:32;;;;;;;;;;;9.20;99.90;;;;;;5013157;28;19922;-68
2022/10/03 05:51:01;;;;;;;;;;;9.20;99.90;;;;;;5011708;28;20348;-68
2022/10/03 05:53:55;;;;;;;;;;;9.10;99.90;;;;;;5011829;28;19921;-68
2022/10/03 05:56:21;;;;;;;;;;;9.10;99.90;;;;;;5007508;28;19928;-68
2022/10/03 05:59:05;;;;;;;;;;;9.00;99.90;;;;;;5011096;28;19926;-68
2022/10/03 06:01:46;;;;;;;;;;;9.00;99.90;;;;;;5005790;28;19921;-68
2022/10/03 06:04:31;;;;;;;;;;;9.00;99.90;;;;;;5013242;28;19971;-68
2022/10/03 06:07:15;;;;;;;;;;;9.00;99.90;;;;;;5018839;28;20294;-68
2022/10/03 06:10:01;;;;;;;;;;;9.00;99.90;;;;;;5011270;28;19925;-68
2022/10/03 06:12:41;;;;;;;;;;;9.00;99.90;;;;;;5011376;28;19925;-68
2022/10/03 06:15:25;;;;;;;;;;;9.00;99.90;;;;;;5008448;28;19957;-68
2022/10/03 06:18:20;;;;;;;;;;;9.00;99.90;;;;;;5006840;28;19933;-68
2022/10/03 06:21:04;;;;;;;;;;;9.00;99.90;;;;;;4998089;28;19928;-68
2022/10/03 06:23:46;;;;;;;;;;;9.20;99.90;;;;;;5018808;28;19925;-68
2022/10/03 06:26:31;;;;;;;;;;;9.80;99.90;;;;;;5007449;28;19929;-68
2022/10/03 06:29:00;;;;;;;;;;;10.40;99.90;;;;;;5008280;28;19960;-68
2022/10/03 06:31:37;;;;;;;;;;;10.80;99.90;;;;;;5008857;28;19968;-68
2022/10/03 06:34:16;;;;;;;;;;;10.90;99.90;;;;;;5009504;28;20326;-68
2022/10/03 06:37:00;;;;;;;;;;;10.90;99.90;;;;;;5010588;28;19929;-68
2022/10/03 06:39:43;;;;;;;;;;;11.20;99.90;;;;;;5009876;28;19925;-68
2022/10/03 06:42:38;;;;;;;;;;;11.90;99.90;;;;;;5010624;28;19932;-68
2022/10/03 06:45:33;;;;;;;;;;;12.70;99.90;;;;;;4939763;28;19926;-68
2022/10/03 06:48:10;;;;;;;;;;;13.60;99.90;;;;;;4941455;28;20009;-68
2022/10/03 06:50:39;;;;;;;;;;;14.50;99.90;;;;;;5010980;28;19975;-69
2022/10/03 06:53:17;;;;;;;;;;;15.20;99.90;;;;;;5010107;28;19952;-69
2022/10/03 06:56:09;;;;;;;;;;;15.80;99.90;;;;;;5013550;28;20279;-69
2022/10/03 06:58:44;;;;;;;;;;;16.40;99.90;;;;;;4981196;28;19933;-69
2022/10/03 07:01:28;;;;;;;;;;;16.80;99.90;;;;;;5004914;28;19921;-68
2022/10/03 07:03:53;;;;;;;;;;;17.20;99.90;;;;;;5014257;28;19933;-70
2022/10/03 07:06:32;;;;;;;;;;;17.80;99.90;;;;;;5011511;28;19957;-69
2022/10/03 07:09:16;;;;;;;;;;;18.10;99.90;;;;;;5009364;28;19932;-69
2022/10/03 07:11:54;;;;;;;;;;;18.30;99.90;;;;;;5009420;28;19961;-69
2022/10/03 07:14:23;;;;;;;;;;;18.10;99.90;;;;;;5007177;28;19928;-69
2022/10/03 07:17:05;;;;;;;;;;;17.60;99.90;;;;;;5003225;28;19929;-69
2022/10/03 07:19:36;;;;;;;;;;;16.60;99.90;;;;;;5010027;28;20000;-69
2022/10/03 07:22:25;;;;;;;;;;;15.80;99.90;;;;;;5019189;28;19928;-69
2022/10/03 07:25:07;;;;;;;;;;;15.30;99.90;;;;;;5008685;28;19930;-69
2022/10/03 07:27:48;;;;;;;;;;;14.80;99.90;;;;;;5007912;28;19925;-69
2022/10/03 07:30:16;;;;;;;;;;;14.40;99.90;;;;;;5014156;28;20016;-69
2022/10/03 07:32:47;;;;;;;;;;;14.20;99.90;;;;;;5013835;28;19936;-69
2022/10/03 07:38:56;;;;;;;;;;;14.00;99.90;;;;;;5012097;28;19932;-70
2022/10/03 07:41:17;;;;;;;;;;;13.70;99.90;;;;;;5013032;28;20652;-70
2022/10/03 07:43:45;;;;;;;;;;;13.60;99.90;;;;;;5013524;28;19928;-70
2022/10/03 07:46:34;;;;;;;;;;;13.60;99.90;;;;;;5018106;28;19929;-70
2022/10/03 07:49:29;;;;;;;;;;;13.50;99.90;;;;;;5033216;28;19926;-69
2022/10/03 07:52:14;;;;;;;;;;;13.50;99.90;;;;;;5011190;28;20317;-69
2022/10/03 07:54:48;;;;;;;;;;;13.50;99.90;;;;;;5015070;28;19921;-69
2022/10/03 07:57:14;;;;;;;;;;;13.50;99.90;;;;;;5001148;28;19929;-69
2022/10/03 07:59:58;;;;;;;;;;;13.50;99.90;;;;;;5013785;28;19948;-69
2022/10/03 08:02:52;;;;;;;;;;;13.50;99.90;;;;;;5008251;28;19928;-69
2022/10/03 08:05:24;;;;;;;;;;;13.60;99.90;;;;;;5013766;28;19925;-69
2022/10/03 08:08:01;;;;;;;;;;;13.60;99.90;;;;;;5029593;28;20357;-69
2022/10/03 08:10:46;;;;;;;;;;;13.70;99.90;;;;;;5021102;28;19965;-69
2022/10/03 08:13:27;;;;;;;;;;;13.70;99.90;;;;;;5015817;28;19921;-69
2022/10/03 08:15:55;;;;;;;;;;;13.80;99.90;;;;;;5023752;28;20016;-69
2022/10/03 08:18:29;;;;;;;;;;;13.90;99.90;;;;;;5012156;28;19925;-69
2022/10/03 08:20:54;;;;;;;;;;;13.90;99.90;;;;;;4996847;28;20326;-69
2022/10/03 08:23:20;;;;;;;;;;;14.00;99.90;;;;;;5013236;28;19921;-69
2022/10/03 08:25:52;;;;;;;;;;;14.10;99.90;;;;;;4997358;28;19976;-69
2022/10/03 08:28:23;;;;;;;;;;;14.20;99.90;;;;;;5019629;28;19957;-69
2022/10/03 08:31:08;;;;;;;;;;;14.20;99.90;;;;;;5012818;28;20040;-69
2022/10/03 08:33:33;;;;;;;;;;;14.30;99.90;;;;;;4993549;28;19953;-69
2022/10/03 08:36:13;;;;;;;;;;;14.50;99.90;;;;;;5011671;28;19999;-69
2022/10/03 08:38:48;;;;;;;;;;;14.50;99.90;;;;;;5008060;28;19930;-69
2022/10/03 08:41:17;;;;;;;;;;;14.60;99.90;;;;;;5011448;28;19929;-69
2022/10/03 08:44:01;;;;;;;;;;;14.70;99.90;;;;;;5012403;28;19933;-69
2022/10/03 08:46:49;;;;;;;;;;;14.70;99.90;;;;;;5010414;28;19922;-69
2022/10/03 08:49:33;;;;;;;;;;;14.80;99.90;;;;;;5009031;28;20764;-70
2022/10/03 08:52:02;;;;;;;;;;;14.90;99.90;;;;;;5017045;28;19975;-70
2022/10/03 08:54:50;;;;;;;;;;;15.00;99.90;;;;;;5011757;28;19925;-69
2022/10/03 08:57:24;;;;;;;;;;;15.10;99.90;;;;;;5010977;28;20299;-70
2022/10/03 08:59:58;;;;;;;;;;;15.10;99.90;;;;;;5039086;28;19921;-69
2022/10/03 09:02:43;;;;;;;;;;;15.20;99.90;;;;;;5008394;28;19926;-69
2022/10/03 09:05:24;;;;;;;;;;;15.20;99.90;;;;;;5012618;28;19933;-69
2022/10/03 09:08:08;;;;;;;;;;;15.20;99.90;;;;;;5017161;28;19971;-69
2022/10/03 09:10:53;;;;;;;;;;;15.30;99.90;;;;;;5005359;28;19925;-69
2022/10/03 09:13:37;;;;;;;;;;;15.30;99.90;;;;;;5004758;28;19929;-69
2022/10/03 09:16:22;;;;;;;;;;;15.30;99.90;;;;;;5003488;28;19928;-70
2022/10/03 09:19:06;;;;;;;;;;;15.40;99.90;;;;;;5004870;28;19936;-69
2022/10/03 09:21:55;;;;;;;;;;;15.40;99.90;;;;;;5002513;28;20001;-69
2022/10/03 09:24:29;;;;;;;;;;;15.40;99.90;;;;;;4998923;28;19933;-69
2022/10/03 09:26:57;;;;;;;;;;;15.50;99.90;;;;;;5001259;28;20394;-69
2022/10/03 09:29:29;;;;;;;;;;;15.50;99.90;;;;;;5019646;28;19926;-69
2022/10/03 09:32:04;;;;;;;;;;;15.60;99.90;;;;;;5002780;28;19928;-70
2022/10/03 09:34:48;;;;;;;;;;;15.60;99.90;;;;;;5019293;28;20016;-69
2022/10/03 09:37:33;;;;;;;;;;;15.70;99.90;;;;;;4999645;28;19933;-69
2022/10/03 09:40:04;;;;;;;;;;;15.70;99.90;;;;;;5000602;28;19933;-69
2022/10/03 09:42:30;;;;;;;;;;;15.80;99.90;;;;;;5007162;28;19945;-69
2022/10/03 09:45:25;;;;;;;;;;;15.80;99.90;;;;;;4991330;28;19922;-69
2022/10/03 09:47:53;;;;;;;;;;;15.80;99.90;;;;;;5000611;28;19926;-69
2022/10/03 09:50:20;;;;;;;;;;;15.90;99.90;;;;;;5003317;28;19964;-69
2022/10/03 09:53:04;;;;;;;;;;;15.90;99.90;;;;;;5021331;28;19965;-69
2022/10/03 09:55:39;;;;;;;;;;;16.00;99.90;;;;;;5001258;28;19921;-70
2022/10/03 09:58:14;;;;;;;;;;;16.00;99.90;;;;;;5004052;28;19933;-69
2022/10/03 10:00:55;;;;;;;;;;;16.10;99.90;;;;;;5005853;28;20027;-70
2022/10/03 10:03:44;;;;;;;;;;;16.10;99.90;;;;;;5005023;28;20004;-69
2022/10/03 10:06:17;;;;;;;;;;;16.10;99.90;;;;;;5004449;28;19936;-70
2022/10/03 10:09:02;;;;;;;;;;;16.10;99.90;;;;;;5007445;28;20524;-69
2022/10/03 10:11:53;;;;;;;;;;;16.10;99.90;;;;;;5003691;28;19953;-70
2022/10/03 10:14:24;;;;;;;;;;;16.20;99.90;;;;;;5003747;28;20459;-70
2022/10/03 10:17:08;;;;;;;;;;;16.30;99.90;;;;;;5009434;28;19987;-70
2022/10/03 10:19:45;;;;;;;;;;;16.40;99.90;;;;;;5008122;28;19933;-70
2022/10/03 10:22:14;;;;;;;;;;;16.40;99.90;;;;;;5012577;28;19980;-70
2022/10/03 10:24:45;;;;;;;;;;;16.50;99.90;;;;;;5016298;28;19980;-70
2022/10/03 10:27:29;;;;;;;;;;;16.60;99.90;;;;;;5019156;28;19925;-70
2022/10/03 10:30:14;;;;;;;;;;;16.70;99.90;;;;;;5010512;28;20383;-69
2022/10/03 10:32:42;;;;;;;;;;;16.80;99.90;;;;;;5004342;28;20407;-69
2022/10/03 10:35:14;;;;;;;;;;;16.80;99.90;;;;;;5002540;28;19967;-69
2022/10/03 10:37:53;;;;;;;;;;;16.90;99.90;;;;;;5008074;28;20039;-70
2022/10/03 10:40:21;;;;;;;;;;;17.00;99.90;;;;;;4989256;28;19921;-70
2022/10/03 10:42:59;;;;;;;;;;;17.00;99.90;;;;;;5002054;28;19972;-70
2022/10/03 10:45:28;;;;;;;;;;;17.00;99.90;;;;;;5009569;28;19921;-70
2022/10/03 10:48:12;;;;;;;;;;;17.00;99.90;;;;;;4989905;28;20330;-70
2022/10/03 10:50:49;;;;;;;;;;;17.00;99.90;;;;;;5005939;28;20008;-70
2022/10/03 10:53:36;;;;;;;;;;;16.80;99.90;;;;;;5010121;28;20036;-71
2022/10/03 10:56:20;;;;;;;;;;;16.70;99.90;;;;;;5007122;28;19926;-70
2022/10/03 10:59:12;;;;;;;;;;;16.70;99.90;;;;;;5010490;28;19930;-70
2022/10/03 11:01:40;;;;;;;;;;;16.80;99.90;;;;;;5009128;28;20360;-70
2022/10/03 11:04:25;;;;;;;;;;;16.80;99.90;;;;;;5004718;28;19921;-70
2022/10/03 11:07:10;;;;;;;;;;;16.80;99.90;;;;;;5008670;28;20042;-70
2022/10/03 11:09:36;;;;;;;;;;;16.80;99.90;;;;;;5010461;28;19929;-70
2022/10/03 11:12:19;;;;;;;;;;;16.80;99.90;;;;;;5010537;28;19932;-69
2022/10/03 11:14:44;;;;;;;;;;;16.90;99.90;;;;;;5008508;28;20344;-69
2022/10/03 11:17:19;;;;;;;;;;;17.00;99.90;;;;;;5011646;28;19976;-69
2022/10/03 11:20:09;;;;;;;;;;;17.10;99.90;;;;;;5011735;28;20053;-69
2022/10/03 11:22:43;;;;;;;;;;;17.20;99.90;;;;;;5008105;28;20423;-69
2022/10/03 11:25:27;;;;;;;;;;;17.30;99.90;;;;;;5015782;28;20059;-69
2022/10/03 11:28:08;;;;;;;;;;;17.40;99.90;;;;;;5013905;28;19930;-69
2022/10/03 11:30:55;;;;;;;;;;;17.40;99.90;;;;;;5006302;28;19930;-69
2022/10/03 11:33:40;;;;;;;;;;;17.40;99.90;;;;;;5011496;28;19948;-69
2022/10/03 11:36:06;;;;;;;;;;;17.30;99.90;;;;;;5007535;28;19928;-69
2022/10/03 11:38:35;;;;;;;;;;;17.30;99.90;;;;;;5015838;28;19933;-69
2022/10/03 11:41:20;;;;;;;;;;;17.40;99.90;;;;;;5007571;28;19976;-68
2022/10/03 11:44:06;;;;;;;;;;;17.40;99.90;;;;;;4985922;28;19921;-68
2022/10/03 11:47:01;;;;;;;;;;;17.30;99.90;;;;;;5013516;28;19952;-68
2022/10/03 11:49:32;;;;;;;;;;;17.30;99.90;;;;;;4952054;28;19926;-68
2022/10/03 11:51:58;;;;;;;;;;;17.30;99.90;;;;;;5016879;28;19986;-68
2022/10/03 11:54:33;;;;;;;;;;;17.40;99.90;;;;;;5013986;28;20020;-68
2022/10/03 11:57:13;;;;;;;;;;;17.50;99.90;;;;;;5009794;28;19921;-68
2022/10/03 11:59:38;;;;;;;;;;;17.50;99.90;;;;;;5005868;28;19960;-68
2022/10/03 12:02:15;;;;;;;;;;;17.70;99.90;;;;;;5008498;28;19922;-68
2022/10/03 12:04:43;;;;;;;;;;;17.80;99.90;;;;;;5007635;28;19930;-68
2022/10/03 12:10:37;;;;;;;;;;;17.90;99.90;;;;;;5026658;28;19922;-68
2022/10/03 12:13:07;;;;;;;;;;;18.00;99.90;;;;;;5012782;28;19944;-68
2022/10/03 12:15:37;;;;;;;;;;;18.20;99.90;;;;;;5011106;28;20382;-68
2022/10/03 12:18:15;;;;;;;;;;;18.40;99.90;;;;;;5015077;28;19925;-68
2022/10/03 12:20:41;;;;;;;;;;;18.50;99.90;;;;;;5006208;28;19925;-68
2022/10/03 12:23:18;;;;;;;;;;;18.50;99.90;;;;;;5014316;28;20393;-68
2022/10/03 12:25:44;;;;;;;;;;;18.60;99.90;;;;;;5007223;28;19965;-68
2022/10/03 12:28:19;;;;;;;;;;;18.20;99.90;;;;;;5012037;28;19960;-68
2022/10/03 12:31:04;;;;;;;;;;;18.10;99.90;;;;;;5012595;28;20012;-68
2022/10/03 12:33:38;;;;;;;;;;;18.20;99.90;;;;;;5013263;28;19922;-68
2022/10/03 12:36:03;;;;;;;;;;;18.30;99.90;;;;;;5012805;28;19925;-68
2022/10/03 12:38:36;;;;;;;;;;;18.20;99.90;;;;;;5016891;23;20373;-68
2022/10/03 12:41:15;;;;;;;;;;;18.30;99.90;;;;;;5022932;28;20385;-68
2022/10/03 12:43:53;;;;;;;;;;;18.20;99.90;;;;;;5022902;28;19921;-68
2022/10/03 12:46:18;;;;;;;;;;;18.40;99.90;;;;;;5012645;28;19928;-68
2022/10/03 12:49:05;;;;;;;;;;;18.50;99.90;;;;;;5022231;28;19929;-68
2022/10/03 12:51:40;;;;;;;;;;;18.60;99.90;;;;;;5013389;28;19925;-68
2022/10/03 12:54:14;;;;;;;;;;;18.70;99.90;;;;;;5020144;28;19932;-68
2022/10/03 12:56:43;;;;;;;;;;;18.60;99.90;;;;;;5004567;28;19936;-68
2022/10/03 12:59:33;;;;;;;;;;;18.80;99.90;;;;;;5020066;28;19979;-68
2022/10/03 13:01:58;;;;;;;;;;;18.90;99.90;;;;;;5027892;28;19980;-68
2022/10/03 13:04:32;;;;;;;;;;;18.60;99.90;;;;;;5019488;28;19921;-68
2022/10/03 13:07:17;;;;;;;;;;;18.70;99.90;;;;;;5028780;28;19921;-68
2022/10/03 13:09:48;;;;;;;;;;;18.80;99.90;;;;;;5041099;28;19921;-68
2022/10/03 13:12:21;;;;;;;;;;;18.80;99.90;;;;;;5020270;28;19921;-67
2022/10/03 13:15:05;;;;;;;;;;;18.70;99.90;;;;;;5015449;28;19933;-68
2022/10/03 13:17:49;;;;;;;;;;;18.60;99.90;;;;;;5020055;28;19925;-68
2022/10/03 13:20:22;;;;;;;;;;;18.50;99.90;;;;;;5021088;28;19921;-68
2022/10/03 13:22:48;;;;;;;;;;;18.50;99.90;;;;;;5024151;28;19932;-68
2022/10/03 13:25:20;;;;;;;;;;;18.60;99.90;;;;;;5019964;28;19933;-68
2022/10/03 13:28:00;;;;;;;;;;;18.60;99.90;;;;;;4995031;28;19925;-68
2022/10/03 13:30:31;;;;;;;;;;;18.60;99.90;;;;;;5007115;28;20416;-67
2022/10/03 13:32:56;;;;;;;;;;;18.60;99.90;;;;;;5019754;28;19983;-67
2022/10/03 13:38:16;;;;;;;;;;;18.60;99.90;;;;;;5027060;28;20425;-68
2022/10/03 13:40:46;;;;;;;;;;;18.40;99.90;;;;;;5030372;28;19980;-68
2022/10/03 13:43:14;;;;;;;;;;;18.40;99.90;;;;;;5016067;28;20021;-67
2022/10/03 13:45:43;;;;;;;;;;;18.50;99.90;;;;;;5023146;28;19972;-68
2022/10/03 13:48:22;;;;;;;;;;;18.40;99.90;;;;;;5025983;28;19925;-67
2022/10/03 13:51:00;;;;;;;;;;;18.40;99.90;;;;;;5025809;28;19929;-68
2022/10/03 13:53:45;;;;;;;;;;;18.50;99.90;;;;;;5021735;28;19975;-68
2022/10/03 13:56:14;;;;;;;;;;;18.40;99.90;;;;;;5018040;28;19928;-67
2022/10/03 13:58:45;;;;;;;;;;;18.40;99.90;;;;;;5022833;28;20028;-67
2022/10/03 14:01:23;;;;;;;;;;;18.40;99.90;;;;;;5004983;28;20223;-67
2022/10/03 14:04:07;;;;;;;;;;;18.40;99.90;;;;;;5023747;28;20413;-68
2022/10/03 14:06:42;;;;;;;;;;;18.40;99.90;;;;;;5012922;28;19921;-68
2022/10/03 14:09:11;;;;;;;;;;;18.40;99.90;;;;;;5022738;28;19921;-68
2022/10/03 14:11:43;;;;;;;;;;;18.30;99.90;;;;;;5011185;28;19921;-67
2022/10/03 14:14:17;;;;;;;;;;;18.30;99.90;;;;;;5021605;28;19948;-68
2022/10/03 14:16:48;;;;;;;;;;;18.30;99.90;;;;;;5022690;28;19925;-68
2022/10/03 14:19:20;;;;;;;;;;;18.20;99.90;;;;;;5019776;28;19926;-68
2022/10/03 14:22:04;;;;;;;;;;;18.20;99.90;;;;;;5024348;28;20573;-68
2022/10/03 14:24:30;;;;;;;;;;;18.10;99.90;;;;;;5011209;28;20018;-68
2022/10/03 14:26:58;;;;;;;;;;;18.00;99.90;;;;;;5015962;28;19992;-68
2022/10/03 14:29:42;;;;;;;;;;;17.90;99.90;;;;;;5015798;28;19921;-68
2022/10/03 14:32:08;;;;;;;;;;;17.90;99.90;;;;;;5019847;28;19932;-68
2022/10/03 14:34:33;;;;;;;;;;;17.90;99.90;;;;;;5015863;28;19921;-68
2022/10/03 14:37:14;;;;;;;;;;;17.90;99.90;;;;;;5014067;28;19925;-67
2022/10/03 14:39:46;;;;;;;;;;;17.80;99.90;;;;;;5010444;28;19936;-68
2022/10/03 14:42:31;;;;;;;;;;;17.90;99.90;;;;;;5015374;28;19987;-68
2022/10/03 14:45:02;;;;;;;;;;;17.90;99.90;;;;;;5020838;28;19971;-67
2022/10/03 14:47:35;;;;;;;;;;;17.80;99.90;;;;;;5007241;28;19928;-68
2022/10/03 14:50:01;;;;;;;;;;;17.80;99.90;;;;;;5029906;28;19921;-67
2022/10/03 14:52:31;;;;;;;;;;;17.80;99.90;;;;;;5023319;28;20264;-68
2022/10/03 14:55:01;;;;;;;;;;;17.80;99.90;;;;;;5024666;28;19921;-67
2022/10/03 14:57:40;;;;;;;;;;;17.70;99.90;;;;;;5016175;28;20381;-68
2022/10/03 15:00:07;;;;;;;;;;;17.70;99.90;;;;;;5021605;28;19929;-67
2022/10/03 15:02:35;;;;;;;;;;;17.70;99.90;;;;;;5019618;28;19972;-67
2022/10/03 15:05:24;;;;;;;;;;;17.80;99.90;;;;;;5024981;28;20290;-67
2022/10/03 15:07:50;;;;;;;;;;;17.70;99.90;;;;;;4989499;28;19995;-68
2022/10/03 15:10:22;;;;;;;;;;;17.70;99.90;;;;;;5017803;28;19928;-67
2022/10/03 15:12:50;;;;;;;;;;;17.70;99.90;;;;;;5022410;28;19940;-68
2022/10/03 15:15:34;;;;;;;;;;;17.70;99.90;;;;;;5022082;28;19929;-66
2022/10/03 15:18:02;;;;;;;;;;;17.60;99.90;;;;;;5015736;28;19976;-67
2022/10/03 15:20:32;;;;;;;;;;;17.70;99.90;;;;;;5016071;28;19933;-67
2022/10/03 15:23:02;;;;;;;;;;;17.60;99.90;;;;;;5000720;28;19953;-68
2022/10/03 15:25:33;;;;;;;;;;;17.60;99.90;;;;;;5026660;28;20311;-67
2022/10/03 15:28:02;;;;;;;;;;;17.50;99.90;;;;;;5012057;28;19925;-68